sensor_id;sensor_type;location;lat;lon;timestamp;noise_LAeq;noise_LA_min;noise_LA_max;noise_LA01;noise_LA95
69615;Laerm;56821;52.486;4.680;2023-04-24T00:00:06;56.56;49.33;75.06;;
69615;Laerm;56821;52.486;4.680;2023-04-24T00:00:18;56.94;49.41;73.49;;
69615;Laerm;56821;52.486;4.680;2023-04-24T00:00:29;55.56;50.19;64.88;;
69615;Laerm;56821;52.486;4.680;2023-04-24T00:00:40;56.06;49.74;67.78;;
69615;Laerm;56821;52.486;4.680;2023-04-24T00:00:50;55.34;48.86;65.83;;
69615;Laerm;56821;52.486;4.680;2023-04-24T00:01:02;58.93;48.74;82.07;;
69615;Laerm;56821;52.486;4.680;2023-04-24T00:01:12;55.20;49.64;64.02;;
69615;Laerm;56821;52.486;4.680;2023-04-24T00:01:23;54.17;48.84;62.81;;
69615;Laerm;56821;52.486;4.680;2023-04-24T00:01:33;54.57;48.92;65.03;;
69615;Laerm;56821;52.486;4.680;2023-04-24T00:01:44;54.66;48.87;63.70;;
69615;Laerm;56821;52.486;4.680;2023-04-24T00:01:54;54.81;48.26;64.65;;
69615;Laerm;56821;52.486;4.680;2023-04-24T00:02:05;57.28;48.62;79.20;;
69615;Laerm;56821;52.486;4.680;2023-04-24T00:02:16;54.91;48.74;68.05;;
69615;Laerm;56821;52.486;4.680;2023-04-24T00:02:26;54.31;48.47;65.41;;
69615;Laerm;56821;52.486;4.680;2023-04-24T00:02:37;54.99;47.97;68.10;;
69615;Laerm;56821;52.486;4.680;2023-04-24T00:02:50;53.84;47.58;63.92;;
69615;Laerm;56821;52.486;4.680;2023-04-24T00:03:00;54.54;47.84;69.02;;
69615;Laerm;56821;52.486;4.680;2023-04-24T00:03:10;56.28;48.33;76.73;;
69615;Laerm;56821;52.486;4.680;2023-04-24T00:03:21;58.33;47.59;79.54;;
69615;Laerm;56821;52.486;4.680;2023-04-24T00:03:32;54.46;48.17;66.84;;
69615;Laerm;56821;52.486;4.680;2023-04-24T00:03:42;56.44;48.49;77.25;;
69615;Laerm;56821;52.486;4.680;2023-04-24T00:03:53;55.10;48.71;66.98;;
69615;Laerm;56821;52.486;4.680;2023-04-24T00:04:03;55.50;48.75;70.19;;
69615;Laerm;56821;52.486;4.680;2023-04-24T00:04:13;54.51;48.27;67.72;;
69615;Laerm;56821;52.486;4.680;2023-04-24T00:04:26;57.81;47.84;80.14;;
69615;Laerm;56821;52.486;4.680;2023-04-24T00:04:37;53.49;47.80;64.27;;
69615;Laerm;56821;52.486;4.680;2023-04-24T00:04:50;56.80;47.90;78.56;;
69615;Laerm;56821;52.486;4.680;2023-04-24T00:05:01;54.44;47.24;73.18;;
69615;Laerm;56821;52.486;4.680;2023-04-24T00:05:13;53.50;46.94;65.36;;
69615;Laerm;56821;52.486;4.680;2023-04-24T00:05:24;52.95;46.95;62.88;;
69615;Laerm;56821;52.486;4.680;2023-04-24T00:05:34;54.25;47.34;69.62;;
69615;Laerm;56821;52.486;4.680;2023-04-24T00:05:45;53.53;46.75;62.67;;
69615;Laerm;56821;52.486;4.680;2023-04-24T00:05:55;61.99;47.36;86.10;;
69615;Laerm;56821;52.486;4.680;2023-04-24T00:06:05;54.46;47.52;71.45;;
69615;Laerm;56821;52.486;4.680;2023-04-24T00:06:18;54.19;47.25;71.96;;
69615;Laerm;56821;52.486;4.680;2023-04-24T00:06:28;56.04;48.15;75.79;;
69615;Laerm;56821;52.486;4.680;2023-04-24T00:06:44;54.67;47.52;73.45;;
69615;Laerm;56821;52.486;4.680;2023-04-24T00:06:59;54.85;47.15;73.98;;
69615;Laerm;56821;52.486;4.680;2023-04-24T00:07:10;54.46;47.36;71.58;;
69615;Laerm;56821;52.486;4.680;2023-04-24T00:07:20;54.34;47.61;68.66;;
69615;Laerm;56821;52.486;4.680;2023-04-24T00:07:31;54.43;47.02;68.96;;
69615;Laerm;56821;52.486;4.680;2023-04-24T00:07:41;53.59;47.78;66.59;;
69615;Laerm;56821;52.486;4.680;2023-04-24T00:07:52;53.12;46.50;62.39;;
69615;Laerm;56821;52.486;4.680;2023-04-24T00:08:02;56.31;47.66;77.55;;
69615;Laerm;56821;52.486;4.680;2023-04-24T00:08:12;53.37;46.58;63.45;;
69615;Laerm;56821;52.486;4.680;2023-04-24T00:08:23;52.76;46.71;62.46;;
69615;Laerm;56821;52.486;4.680;2023-04-24T00:08:34;54.35;46.03;70.46;;
69615;Laerm;56821;52.486;4.680;2023-04-24T00:08:44;53.53;46.85;63.96;;
69615;Laerm;56821;52.486;4.680;2023-04-24T00:08:55;56.32;46.91;78.03;;
69615;Laerm;56821;52.486;4.680;2023-04-24T00:09:05;55.24;47.56;75.02;;
69615;Laerm;56821;52.486;4.680;2023-04-24T00:09:15;57.64;47.82;78.66;;
69615;Laerm;56821;52.486;4.680;2023-04-24T00:09:26;54.96;47.44;72.25;;
69615;Laerm;56821;52.486;4.680;2023-04-24T00:09:36;54.65;47.19;71.12;;
69615;Laerm;56821;52.486;4.680;2023-04-24T00:09:46;53.08;46.44;66.94;;
69615;Laerm;56821;52.486;4.680;2023-04-24T00:09:57;55.83;47.21;77.43;;
69615;Laerm;56821;52.486;4.680;2023-04-24T00:10:07;53.02;46.01;67.45;;
69615;Laerm;56821;52.486;4.680;2023-04-24T00:10:18;53.13;46.85;65.71;;
69615;Laerm;56821;52.486;4.680;2023-04-24T00:10:28;54.86;47.52;74.42;;
69615;Laerm;56821;52.486;4.680;2023-04-24T00:10:38;53.97;47.25;65.94;;
69615;Laerm;56821;52.486;4.680;2023-04-24T00:10:48;55.51;46.81;76.19;;
69615;Laerm;56821;52.486;4.680;2023-04-24T00:10:59;53.65;46.99;67.16;;
69615;Laerm;56821;52.486;4.680;2023-04-24T00:11:09;53.52;46.78;64.35;;
69615;Laerm;56821;52.486;4.680;2023-04-24T00:11:19;52.50;46.82;60.44;;
69615;Laerm;56821;52.486;4.680;2023-04-24T00:11:30;52.82;46.53;64.20;;
69615;Laerm;56821;52.486;4.680;2023-04-24T00:11:40;54.28;48.22;63.97;;
69615;Laerm;56821;52.486;4.680;2023-04-24T00:11:51;56.15;48.28;75.33;;
69615;Laerm;56821;52.486;4.680;2023-04-24T00:12:01;55.57;48.56;74.52;;
69615;Laerm;56821;52.486;4.680;2023-04-24T00:12:14;55.81;48.19;76.10;;
69615;Laerm;56821;52.486;4.680;2023-04-24T00:12:25;55.43;48.61;70.26;;
69615;Laerm;56821;52.486;4.680;2023-04-24T00:12:35;56.03;48.07;72.51;;
69615;Laerm;56821;52.486;4.680;2023-04-24T00:12:46;55.52;49.00;70.21;;
69615;Laerm;56821;52.486;4.680;2023-04-24T00:12:56;55.68;49.57;74.00;;
69615;Laerm;56821;52.486;4.680;2023-04-24T00:13:06;54.52;48.35;66.32;;
69615;Laerm;56821;52.486;4.680;2023-04-24T00:13:17;55.20;48.85;66.19;;
69615;Laerm;56821;52.486;4.680;2023-04-24T00:13:27;56.40;49.16;69.31;;
69615;Laerm;56821;52.486;4.680;2023-04-24T00:13:38;60.94;49.77;84.20;;
69615;Laerm;56821;52.486;4.680;2023-04-24T00:13:48;55.06;49.01;62.03;;
69615;Laerm;56821;52.486;4.680;2023-04-24T00:13:59;54.18;47.59;63.84;;
69615;Laerm;56821;52.486;4.680;2023-04-24T00:14:09;56.64;47.25;77.74;;
69615;Laerm;56821;52.486;4.680;2023-04-24T00:14:19;53.72;48.01;63.11;;
69615;Laerm;56821;52.486;4.680;2023-04-24T00:14:30;54.29;48.19;62.45;;
69615;Laerm;56821;52.486;4.680;2023-04-24T00:14:40;54.31;47.88;66.96;;
69615;Laerm;56821;52.486;4.680;2023-04-24T00:14:50;53.87;49.01;63.55;;
69615;Laerm;56821;52.486;4.680;2023-04-24T00:15:01;54.84;49.00;71.85;;
69615;Laerm;56821;52.486;4.680;2023-04-24T00:15:11;55.25;48.84;73.03;;
69615;Laerm;56821;52.486;4.680;2023-04-24T00:15:21;54.70;48.69;63.81;;
69615;Laerm;56821;52.486;4.680;2023-04-24T00:15:32;58.42;49.45;79.95;;
69615;Laerm;56821;52.486;4.680;2023-04-24T00:15:43;56.55;49.34;74.43;;
69615;Laerm;56821;52.486;4.680;2023-04-24T00:15:53;56.96;47.90;75.03;;
69615;Laerm;56821;52.486;4.680;2023-04-24T00:16:03;54.82;48.69;65.57;;
69615;Laerm;56821;52.486;4.680;2023-04-24T00:16:14;54.73;48.85;62.54;;
69615;Laerm;56821;52.486;4.680;2023-04-24T00:16:24;55.33;48.43;67.78;;
69615;Laerm;56821;52.486;4.680;2023-04-24T00:16:34;54.60;48.42;64.74;;
69615;Laerm;56821;52.486;4.680;2023-04-24T00:16:44;54.10;48.23;63.72;;
69615;Laerm;56821;52.486;4.680;2023-04-24T00:16:54;55.65;48.95;72.62;;
69615;Laerm;56821;52.486;4.680;2023-04-24T00:17:05;55.51;48.20;67.91;;
69615;Laerm;56821;52.486;4.680;2023-04-24T00:17:15;54.16;47.87;63.39;;
69615;Laerm;56821;52.486;4.680;2023-04-24T00:17:25;54.01;48.06;65.46;;
69615;Laerm;56821;52.486;4.680;2023-04-24T00:17:36;54.30;48.25;65.26;;
69615;Laerm;56821;52.486;4.680;2023-04-24T00:17:46;54.99;48.40;66.07;;
69615;Laerm;56821;52.486;4.680;2023-04-24T00:17:56;55.24;49.34;66.75;;
69615;Laerm;56821;52.486;4.680;2023-04-24T00:18:06;53.44;47.77;62.26;;
69615;Laerm;56821;52.486;4.680;2023-04-24T00:18:16;53.70;47.72;62.47;;
69615;Laerm;56821;52.486;4.680;2023-04-24T00:18:27;54.14;48.07;63.86;;
69615;Laerm;56821;52.486;4.680;2023-04-24T00:18:37;55.92;48.95;75.45;;
69615;Laerm;56821;52.486;4.680;2023-04-24T00:18:47;53.95;47.08;70.01;;
69615;Laerm;56821;52.486;4.680;2023-04-24T00:18:58;54.22;47.36;73.28;;
69615;Laerm;56821;52.486;4.680;2023-04-24T00:19:08;54.48;47.65;69.13;;
69615;Laerm;56821;52.486;4.680;2023-04-24T00:19:18;53.37;46.77;62.97;;
69615;Laerm;56821;52.486;4.680;2023-04-24T00:19:31;54.30;46.85;71.42;;
69615;Laerm;56821;52.486;4.680;2023-04-24T00:19:41;52.82;46.63;70.19;;
69615;Laerm;56821;52.486;4.680;2023-04-24T00:19:51;52.15;46.39;62.71;;
69615;Laerm;56821;52.486;4.680;2023-04-24T00:20:08;54.35;45.91;76.32;;
69615;Laerm;56821;52.486;4.680;2023-04-24T00:20:20;52.67;46.24;64.33;;
69615;Laerm;56821;52.486;4.680;2023-04-24T00:20:31;52.41;45.85;67.26;;
69615;Laerm;56821;52.486;4.680;2023-04-24T00:20:45;52.75;45.96;65.95;;
69615;Laerm;56821;52.486;4.680;2023-04-24T00:20:56;54.11;46.35;71.65;;
69615;Laerm;56821;52.486;4.680;2023-04-24T00:21:06;53.38;46.35;65.27;;
69615;Laerm;56821;52.486;4.680;2023-04-24T00:21:17;56.24;47.42;75.79;;
69615;Laerm;56821;52.486;4.680;2023-04-24T00:21:27;54.73;47.84;68.61;;
69615;Laerm;56821;52.486;4.680;2023-04-24T00:21:38;53.99;47.21;63.58;;
69615;Laerm;56821;52.486;4.680;2023-04-24T00:21:48;53.52;47.88;64.48;;
69615;Laerm;56821;52.486;4.680;2023-04-24T00:22:01;58.67;47.80;82.77;;
69615;Laerm;56821;52.486;4.680;2023-04-24T00:22:12;53.42;46.63;63.94;;
69615;Laerm;56821;52.486;4.680;2023-04-24T00:22:25;53.20;46.83;64.90;;
69615;Laerm;56821;52.486;4.680;2023-04-24T00:22:36;53.28;46.97;64.70;;
69615;Laerm;56821;52.486;4.680;2023-04-24T00:22:46;54.36;46.03;72.17;;
69615;Laerm;56821;52.486;4.680;2023-04-24T00:22:56;52.73;46.77;62.40;;
69615;Laerm;56821;52.486;4.680;2023-04-24T00:23:07;53.46;47.06;67.48;;
69615;Laerm;56821;52.486;4.680;2023-04-24T00:23:17;52.67;46.78;62.14;;
69615;Laerm;56821;52.486;4.680;2023-04-24T00:23:27;55.48;46.85;76.73;;
69615;Laerm;56821;52.486;4.680;2023-04-24T00:23:37;55.12;46.89;75.24;;
69615;Laerm;56821;52.486;4.680;2023-04-24T00:23:47;53.03;45.69;68.22;;
69615;Laerm;56821;52.486;4.680;2023-04-24T00:23:57;52.34;45.37;65.34;;
69615;Laerm;56821;52.486;4.680;2023-04-24T00:24:08;52.98;46.65;70.30;;
69615;Laerm;56821;52.486;4.680;2023-04-24T00:24:19;52.12;45.83;62.50;;
69615;Laerm;56821;52.486;4.680;2023-04-24T00:24:29;52.39;46.06;62.06;;
69615;Laerm;56821;52.486;4.680;2023-04-24T00:24:40;52.22;45.44;67.06;;
69615;Laerm;56821;52.486;4.680;2023-04-24T00:24:50;51.79;45.51;63.22;;
69615;Laerm;56821;52.486;4.680;2023-04-24T00:25:00;51.70;45.90;64.47;;
69615;Laerm;56821;52.486;4.680;2023-04-24T00:25:11;52.15;45.46;62.23;;
69615;Laerm;56821;52.486;4.680;2023-04-24T00:25:21;52.20;45.54;61.75;;
69615;Laerm;56821;52.486;4.680;2023-04-24T00:25:31;57.16;45.94;80.21;;
69615;Laerm;56821;52.486;4.680;2023-04-24T00:25:42;52.65;46.01;64.51;;
69615;Laerm;56821;52.486;4.680;2023-04-24T00:25:52;53.41;45.84;69.39;;
69615;Laerm;56821;52.486;4.680;2023-04-24T00:26:02;54.05;46.29;72.06;;
69615;Laerm;56821;52.486;4.680;2023-04-24T00:26:12;52.79;46.64;63.97;;
69615;Laerm;56821;52.486;4.680;2023-04-24T00:26:22;53.15;46.83;65.22;;
69615;Laerm;56821;52.486;4.680;2023-04-24T00:26:33;52.79;46.38;63.79;;
69615;Laerm;56821;52.486;4.680;2023-04-24T00:26:43;53.87;47.10;66.15;;
69615;Laerm;56821;52.486;4.680;2023-04-24T00:26:53;53.68;46.41;67.21;;
69615;Laerm;56821;52.486;4.680;2023-04-24T00:27:03;53.15;46.90;65.53;;
69615;Laerm;56821;52.486;4.680;2023-04-24T00:27:14;54.82;46.37;72.59;;
69615;Laerm;56821;52.486;4.680;2023-04-24T00:27:24;54.31;46.56;71.82;;
69615;Laerm;56821;52.486;4.680;2023-04-24T00:27:35;53.54;46.67;66.56;;
69615;Laerm;56821;52.486;4.680;2023-04-24T00:27:47;52.54;46.39;63.23;;
69615;Laerm;56821;52.486;4.680;2023-04-24T00:27:57;54.10;46.31;69.92;;
69615;Laerm;56821;52.486;4.680;2023-04-24T00:28:07;52.37;46.68;65.65;;
69615;Laerm;56821;52.486;4.680;2023-04-24T00:28:17;53.98;46.61;69.06;;
69615;Laerm;56821;52.486;4.680;2023-04-24T00:28:28;53.82;46.65;64.86;;
69615;Laerm;56821;52.486;4.680;2023-04-24T00:28:38;54.04;46.47;68.27;;
69615;Laerm;56821;52.486;4.680;2023-04-24T00:28:48;52.99;47.36;66.96;;
69615;Laerm;56821;52.486;4.680;2023-04-24T00:28:58;58.60;46.02;82.13;;
69615;Laerm;56821;52.486;4.680;2023-04-24T00:29:09;59.56;47.25;83.08;;
69615;Laerm;56821;52.486;4.680;2023-04-24T00:29:19;53.61;48.16;66.41;;
69615;Laerm;56821;52.486;4.680;2023-04-24T00:29:29;53.88;47.41;66.55;;
69615;Laerm;56821;52.486;4.680;2023-04-24T00:29:39;56.62;47.26;78.25;;
69615;Laerm;56821;52.486;4.680;2023-04-24T00:29:50;53.34;46.97;69.86;;
69615;Laerm;56821;52.486;4.680;2023-04-24T00:30:00;53.06;45.45;65.85;;
69615;Laerm;56821;52.486;4.680;2023-04-24T00:30:10;52.88;46.18;65.62;;
69615;Laerm;56821;52.486;4.680;2023-04-24T00:30:20;53.06;45.71;71.88;;
69615;Laerm;56821;52.486;4.680;2023-04-24T00:30:31;54.89;46.49;76.01;;
69615;Laerm;56821;52.486;4.680;2023-04-24T00:30:41;52.49;46.65;61.29;;
69615;Laerm;56821;52.486;4.680;2023-04-24T00:30:51;53.25;46.69;67.40;;
69615;Laerm;56821;52.486;4.680;2023-04-24T00:31:01;52.90;46.65;66.83;;
69615;Laerm;56821;52.486;4.680;2023-04-24T00:31:12;53.55;46.66;65.15;;
69615;Laerm;56821;52.486;4.680;2023-04-24T00:31:22;52.18;45.15;65.34;;
69615;Laerm;56821;52.486;4.680;2023-04-24T00:31:32;52.74;45.45;68.10;;
69615;Laerm;56821;52.486;4.680;2023-04-24T00:31:44;51.50;45.14;64.87;;
69615;Laerm;56821;52.486;4.680;2023-04-24T00:31:55;51.23;44.67;61.31;;
69615;Laerm;56821;52.486;4.680;2023-04-24T00:32:05;50.98;44.96;61.48;;
69615;Laerm;56821;52.486;4.680;2023-04-24T00:32:15;51.51;45.30;63.40;;
69615;Laerm;56821;52.486;4.680;2023-04-24T00:32:26;51.14;43.52;62.55;;
69615;Laerm;56821;52.486;4.680;2023-04-24T00:32:36;50.76;45.05;61.47;;
69615;Laerm;56821;52.486;4.680;2023-04-24T00:32:46;51.79;45.06;62.05;;
69615;Laerm;56821;52.486;4.680;2023-04-24T00:32:57;52.51;45.79;66.10;;
69615;Laerm;56821;52.486;4.680;2023-04-24T00:33:07;53.82;45.60;72.84;;
69615;Laerm;56821;52.486;4.680;2023-04-24T00:33:18;53.45;45.00;72.76;;
69615;Laerm;56821;52.486;4.680;2023-04-24T00:33:28;58.25;45.42;82.02;;
69615;Laerm;56821;52.486;4.680;2023-04-24T00:33:38;52.51;45.06;65.08;;
69615;Laerm;56821;52.486;4.680;2023-04-24T00:33:48;51.42;45.42;58.93;;
69615;Laerm;56821;52.486;4.680;2023-04-24T00:33:59;53.38;45.10;72.34;;
69615;Laerm;56821;52.486;4.680;2023-04-24T00:34:09;52.28;45.55;67.82;;
69615;Laerm;56821;52.486;4.680;2023-04-24T00:34:20;51.70;44.97;66.90;;
69615;Laerm;56821;52.486;4.680;2023-04-24T00:34:30;51.79;44.52;68.26;;
69615;Laerm;56821;52.486;4.680;2023-04-24T00:34:42;50.88;44.90;60.31;;
69615;Laerm;56821;52.486;4.680;2023-04-24T00:34:52;51.79;45.28;65.43;;
69615;Laerm;56821;52.486;4.680;2023-04-24T00:35:02;52.31;45.61;64.32;;
69615;Laerm;56821;52.486;4.680;2023-04-24T00:35:13;51.56;45.23;66.90;;
69615;Laerm;56821;52.486;4.680;2023-04-24T00:35:24;51.43;45.15;62.66;;
69615;Laerm;56821;52.486;4.680;2023-04-24T00:35:34;51.64;45.33;61.57;;
69615;Laerm;56821;52.486;4.680;2023-04-24T00:35:45;51.01;44.56;61.65;;
69615;Laerm;56821;52.486;4.680;2023-04-24T00:35:55;49.88;44.36;59.21;;
69615;Laerm;56821;52.486;4.680;2023-04-24T00:36:05;53.54;44.80;74.45;;
69615;Laerm;56821;52.486;4.680;2023-04-24T00:36:15;51.15;44.44;66.42;;
69615;Laerm;56821;52.486;4.680;2023-04-24T00:36:26;51.20;44.15;62.41;;
69615;Laerm;56821;52.486;4.680;2023-04-24T00:36:37;51.10;44.40;61.22;;
69615;Laerm;56821;52.486;4.680;2023-04-24T00:36:47;50.56;43.22;62.55;;
69615;Laerm;56821;52.486;4.680;2023-04-24T00:36:59;51.75;44.18;71.21;;
69615;Laerm;56821;52.486;4.680;2023-04-24T00:37:09;51.10;43.82;66.97;;
69615;Laerm;56821;52.486;4.680;2023-04-24T00:37:19;50.60;43.82;62.93;;
69615;Laerm;56821;52.486;4.680;2023-04-24T00:37:30;50.07;44.16;59.99;;
69615;Laerm;56821;52.486;4.680;2023-04-24T00:37:40;52.13;43.75;71.22;;
69615;Laerm;56821;52.486;4.680;2023-04-24T00:37:51;52.55;44.34;73.52;;
69615;Laerm;56821;52.486;4.680;2023-04-24T00:38:01;53.15;43.43;74.71;;
69615;Laerm;56821;52.486;4.680;2023-04-24T00:38:11;49.60;43.47;59.70;;
69615;Laerm;56821;52.486;4.680;2023-04-24T00:38:21;49.89;42.88;62.36;;
69615;Laerm;56821;52.486;4.680;2023-04-24T00:38:32;49.52;43.41;61.68;;
69615;Laerm;56821;52.486;4.680;2023-04-24T00:38:42;50.29;43.07;68.82;;
69615;Laerm;56821;52.486;4.680;2023-04-24T00:38:52;51.09;42.90;68.24;;
69615;Laerm;56821;52.486;4.680;2023-04-24T00:39:03;50.60;43.26;61.65;;
69615;Laerm;56821;52.486;4.680;2023-04-24T00:39:13;50.37;44.35;59.82;;
69615;Laerm;56821;52.486;4.680;2023-04-24T00:39:23;51.09;44.59;65.40;;
69615;Laerm;56821;52.486;4.680;2023-04-24T00:39:33;51.16;45.20;68.76;;
69615;Laerm;56821;52.486;4.680;2023-04-24T00:39:44;50.62;45.14;64.45;;
69615;Laerm;56821;52.486;4.680;2023-04-24T00:39:54;50.71;44.78;63.83;;
69615;Laerm;56821;52.486;4.680;2023-04-24T00:40:05;55.18;44.32;77.58;;
69615;Laerm;56821;52.486;4.680;2023-04-24T00:40:16;52.11;44.37;70.24;;
69615;Laerm;56821;52.486;4.680;2023-04-24T00:40:26;50.06;44.06;60.22;;
69615;Laerm;56821;52.486;4.680;2023-04-24T00:40:37;55.05;44.67;77.85;;
69615;Laerm;56821;52.486;4.680;2023-04-24T00:40:47;50.58;44.52;63.78;;
69615;Laerm;56821;52.486;4.680;2023-04-24T00:40:58;51.50;45.30;61.63;;
69615;Laerm;56821;52.486;4.680;2023-04-24T00:41:08;52.20;45.55;62.93;;
69615;Laerm;56821;52.486;4.680;2023-04-24T00:41:18;51.92;45.50;62.67;;
69615;Laerm;56821;52.486;4.680;2023-04-24T00:41:29;54.66;45.44;76.49;;
69615;Laerm;56821;52.486;4.680;2023-04-24T00:41:39;51.41;45.26;63.39;;
69615;Laerm;56821;52.486;4.680;2023-04-24T00:41:49;51.57;45.26;64.13;;
69615;Laerm;56821;52.486;4.680;2023-04-24T00:42:00;51.95;44.71;68.79;;
69615;Laerm;56821;52.486;4.680;2023-04-24T00:42:11;51.92;45.50;65.57;;
69615;Laerm;56821;52.486;4.680;2023-04-24T00:42:22;51.92;45.84;61.98;;
69615;Laerm;56821;52.486;4.680;2023-04-24T00:42:32;51.71;46.13;61.92;;
69615;Laerm;56821;52.486;4.680;2023-04-24T00:42:43;51.89;46.11;67.72;;
69615;Laerm;56821;52.486;4.680;2023-04-24T00:42:53;51.76;45.77;61.34;;
69615;Laerm;56821;52.486;4.680;2023-04-24T00:43:03;51.57;45.57;58.73;;
69615;Laerm;56821;52.486;4.680;2023-04-24T00:43:13;52.01;45.58;62.49;;
69615;Laerm;56821;52.486;4.680;2023-04-24T00:43:24;52.50;45.77;63.50;;
69615;Laerm;56821;52.486;4.680;2023-04-24T00:43:34;52.20;45.87;64.78;;
69615;Laerm;56821;52.486;4.680;2023-04-24T00:43:45;52.45;46.55;66.08;;
69615;Laerm;56821;52.486;4.680;2023-04-24T00:43:55;52.06;45.98;60.91;;
69615;Laerm;56821;52.486;4.680;2023-04-24T00:44:06;54.43;46.52;74.71;;
69615;Laerm;56821;52.486;4.680;2023-04-24T00:44:16;51.72;46.20;61.13;;
69615;Laerm;56821;52.486;4.680;2023-04-24T00:44:26;51.56;44.66;64.30;;
69615;Laerm;56821;52.486;4.680;2023-04-24T00:44:37;53.87;45.74;74.61;;
69615;Laerm;56821;52.486;4.680;2023-04-24T00:44:48;51.40;45.32;62.01;;
69615;Laerm;56821;52.486;4.680;2023-04-24T00:44:58;52.35;45.33;69.91;;
69615;Laerm;56821;52.486;4.680;2023-04-24T00:45:09;51.64;45.27;63.49;;
69615;Laerm;56821;52.486;4.680;2023-04-24T00:45:20;52.13;45.79;68.84;;
69615;Laerm;56821;52.486;4.680;2023-04-24T00:45:30;53.75;44.98;74.65;;
69615;Laerm;56821;52.486;4.680;2023-04-24T00:45:41;52.35;46.54;65.65;;
69615;Laerm;56821;52.486;4.680;2023-04-24T00:45:51;52.12;46.95;65.31;;
69615;Laerm;56821;52.486;4.680;2023-04-24T00:46:01;52.72;46.21;69.27;;
69615;Laerm;56821;52.486;4.680;2023-04-24T00:46:12;55.79;48.83;73.29;;
69615;Laerm;56821;52.486;4.680;2023-04-24T00:46:22;55.03;49.35;69.38;;
69615;Laerm;56821;52.486;4.680;2023-04-24T00:46:32;55.89;50.23;66.64;;
69615;Laerm;56821;52.486;4.680;2023-04-24T00:46:43;55.65;50.30;64.87;;
69615;Laerm;56821;52.486;4.680;2023-04-24T00:46:53;56.86;48.81;74.99;;
69615;Laerm;56821;52.486;4.680;2023-04-24T00:47:04;54.28;47.66;66.70;;
69615;Laerm;56821;52.486;4.680;2023-04-24T00:47:14;57.02;48.18;77.30;;
69615;Laerm;56821;52.486;4.680;2023-04-24T00:47:25;55.11;48.52;67.92;;
69615;Laerm;56821;52.486;4.680;2023-04-24T00:47:35;55.27;48.50;73.81;;
69615;Laerm;56821;52.486;4.680;2023-04-24T00:47:46;54.80;49.06;65.63;;
69615;Laerm;56821;52.486;4.680;2023-04-24T00:47:56;54.24;49.02;61.35;;
69615;Laerm;56821;52.486;4.680;2023-04-24T00:48:07;53.37;47.82;62.74;;
69615;Laerm;56821;52.486;4.680;2023-04-24T00:48:17;52.53;47.32;64.98;;
69615;Laerm;56821;52.486;4.680;2023-04-24T00:48:27;52.71;47.46;67.41;;
69615;Laerm;56821;52.486;4.680;2023-04-24T00:48:41;53.85;47.98;69.68;;
69615;Laerm;56821;52.486;4.680;2023-04-24T00:48:51;52.91;47.68;64.37;;
69615;Laerm;56821;52.486;4.680;2023-04-24T00:49:02;53.15;47.61;64.06;;
69615;Laerm;56821;52.486;4.680;2023-04-24T00:49:13;56.35;47.21;77.40;;
69615;Laerm;56821;52.486;4.680;2023-04-24T00:49:23;53.07;47.29;62.53;;
69615;Laerm;56821;52.486;4.680;2023-04-24T00:49:34;52.80;47.54;62.78;;
69615;Laerm;56821;52.486;4.680;2023-04-24T00:49:44;52.87;47.72;60.57;;
69615;Laerm;56821;52.486;4.680;2023-04-24T00:49:54;55.85;48.11;76.14;;
69615;Laerm;56821;52.486;4.680;2023-04-24T00:50:05;53.03;47.34;68.00;;
69615;Laerm;56821;52.486;4.680;2023-04-24T00:50:16;52.29;46.90;59.77;;
69615;Laerm;56821;52.486;4.680;2023-04-24T00:50:26;54.95;47.20;74.80;;
69615;Laerm;56821;52.486;4.680;2023-04-24T00:50:37;52.10;47.59;60.85;;
69615;Laerm;56821;52.486;4.680;2023-04-24T00:50:48;53.61;47.57;68.38;;
69615;Laerm;56821;52.486;4.680;2023-04-24T00:50:58;53.31;48.75;65.94;;
69615;Laerm;56821;52.486;4.680;2023-04-24T00:51:08;54.14;48.85;62.13;;
69615;Laerm;56821;52.486;4.680;2023-04-24T00:51:19;54.48;48.58;64.06;;
69615;Laerm;56821;52.486;4.680;2023-04-24T00:51:29;53.86;48.29;62.66;;
69615;Laerm;56821;52.486;4.680;2023-04-24T00:51:40;55.46;50.32;71.38;;
69615;Laerm;56821;52.486;4.680;2023-04-24T00:51:55;63.27;50.68;88.43;;
69615;Laerm;56821;52.486;4.680;2023-04-24T00:52:06;55.94;49.76;70.89;;
69615;Laerm;56821;52.486;4.680;2023-04-24T00:52:18;54.39;49.18;70.19;;
69615;Laerm;56821;52.486;4.680;2023-04-24T00:52:28;53.62;48.93;61.77;;
69615;Laerm;56821;52.486;4.680;2023-04-24T00:52:41;53.74;49.13;64.66;;
69615;Laerm;56821;52.486;4.680;2023-04-24T00:52:51;53.89;48.99;63.15;;
69615;Laerm;56821;52.486;4.680;2023-04-24T00:53:01;53.92;48.44;63.44;;
69615;Laerm;56821;52.486;4.680;2023-04-24T00:53:11;54.75;48.72;71.33;;
69615;Laerm;56821;52.486;4.680;2023-04-24T00:53:22;57.15;50.41;73.23;;
69615;Laerm;56821;52.486;4.680;2023-04-24T00:53:32;57.81;53.24;64.61;;
69615;Laerm;56821;52.486;4.680;2023-04-24T00:53:42;60.62;54.49;69.78;;
69615;Laerm;56821;52.486;4.680;2023-04-24T00:53:53;63.08;57.88;72.58;;
69615;Laerm;56821;52.486;4.680;2023-04-24T00:54:03;64.16;58.16;71.35;;
69615;Laerm;56821;52.486;4.680;2023-04-24T00:54:13;67.38;62.15;81.40;;
69615;Laerm;56821;52.486;4.680;2023-04-24T00:54:23;62.94;57.21;76.59;;
69615;Laerm;56821;52.486;4.680;2023-04-24T00:54:34;59.26;54.11;68.07;;
69615;Laerm;56821;52.486;4.680;2023-04-24T00:54:45;60.22;54.41;74.38;;
69615;Laerm;56821;52.486;4.680;2023-04-24T00:54:55;61.47;57.69;71.30;;
69615;Laerm;56821;52.486;4.680;2023-04-24T00:55:05;62.78;58.54;77.12;;
69615;Laerm;56821;52.486;4.680;2023-04-24T00:55:16;64.24;58.29;84.02;;
69615;Laerm;56821;52.486;4.680;2023-04-24T00:55:26;63.48;58.48;75.51;;
69615;Laerm;56821;52.486;4.680;2023-04-24T00:55:36;61.10;54.75;75.57;;
69615;Laerm;56821;52.486;4.680;2023-04-24T00:55:47;61.59;55.03;81.01;;
69615;Laerm;56821;52.486;4.680;2023-04-24T00:55:57;62.33;54.49;83.76;;
69615;Laerm;56821;52.486;4.680;2023-04-24T00:56:08;59.16;53.88;65.35;;
69615;Laerm;56821;52.486;4.680;2023-04-24T00:56:18;60.58;53.83;78.92;;
69615;Laerm;56821;52.486;4.680;2023-04-24T00:56:29;59.88;54.53;73.56;;
69615;Laerm;56821;52.486;4.680;2023-04-24T00:56:40;60.69;55.18;79.43;;
69615;Laerm;56821;52.486;4.680;2023-04-24T00:56:51;57.32;50.23;70.46;;
69615;Laerm;56821;52.486;4.680;2023-04-24T00:57:05;55.41;50.48;62.66;;
69615;Laerm;56821;52.486;4.680;2023-04-24T00:57:15;55.30;50.21;66.06;;
69615;Laerm;56821;52.486;4.680;2023-04-24T00:57:26;61.69;49.18;85.51;;
69615;Laerm;56821;52.486;4.680;2023-04-24T00:57:36;53.23;48.37;59.75;;
69615;Laerm;56821;52.486;4.680;2023-04-24T00:57:47;53.33;48.69;63.01;;
69615;Laerm;56821;52.486;4.680;2023-04-24T00:57:58;53.72;48.02;66.74;;
69615;Laerm;56821;52.486;4.680;2023-04-24T00:58:09;53.96;48.94;67.89;;
69615;Laerm;56821;52.486;4.680;2023-04-24T00:58:19;54.03;48.09;69.46;;
69615;Laerm;56821;52.486;4.680;2023-04-24T00:58:29;53.14;47.81;61.46;;
69615;Laerm;56821;52.486;4.680;2023-04-24T00:58:41;53.64;47.93;64.38;;
69615;Laerm;56821;52.486;4.680;2023-04-24T00:58:51;53.99;47.36;70.18;;
69615;Laerm;56821;52.486;4.680;2023-04-24T00:59:02;52.50;47.67;59.87;;
69615;Laerm;56821;52.486;4.680;2023-04-24T00:59:13;52.88;47.93;65.78;;
69615;Laerm;56821;52.486;4.680;2023-04-24T00:59:24;52.94;48.19;63.37;;